SKSM/SMR METAR and TAF weather

Enter ICAO airport designator
Station Type Date Time Source
SKSM METAR 2020/07/08 20:00 UTC NOAA

SKSM 082000Z 07004KT 7000 TSRA SCT017CB OVC070 27/27 A2985 RMK CB/E/SE


Station Type Date Time Source
SKSM Decoded METAR 2020/07/08 20:00 UTC NOAA

Santa Marta / Simon Bolivar, Colombia (SKSM) 11-08N 074-14W 14M
Jul 08, 2020 - 04:00 PM EDT / 2020.07.08 2000 UTC
Wind: from the ENE (070 degrees) at 5 MPH (4 KT):0
Visibility: 4 mile(s):0
Sky conditions: overcast
Weather: rain with thunder; Cumulonimbus clouds observed
Temperature: 80 F (27 C)
Dew Point: 80 F (27 C)
Relative Humidity: 100%
Pressure (altimeter): 29.85 in. Hg (1010 hPa)
ob: SKSM 082000Z 07004KT 7000 TSRA SCT017CB OVC070 27/27 A2985 RMK CB/E/SE
cycle: 20

Station Type Date Time Source
SKSM TAF UTC NOAA

Error!

Example: see airport list